sensor_id;sensor_type;location;lat;lon;timestamp;pressure;altitude;pressure_sealevel;temperature;humidity
64516;BME280;50891;37.380;-122.076;2022-08-02T00:01:38;101067.84;;;30.91;32.95
64516;BME280;50891;37.380;-122.076;2022-08-02T00:04:05;101061.63;;;30.96;32.93
64516;BME280;50891;37.380;-122.076;2022-08-02T00:06:31;101054.06;;;31.03;32.61
64516;BME280;50891;37.380;-122.076;2022-08-02T00:08:57;101061.19;;;31.14;32.47
64516;BME280;50891;37.380;-122.076;2022-08-02T00:11:24;101054.97;;;31.19;32.56
64516;BME280;50891;37.380;-122.076;2022-08-02T00:13:50;101058.78;;;31.23;32.56
64516;BME280;50891;37.380;-122.076;2022-08-02T00:16:16;101059.09;;;31.26;32.43
64516;BME280;50891;37.380;-122.076;2022-08-02T00:18:43;101049.63;;;31.34;32.48
64516;BME280;50891;37.380;-122.076;2022-08-02T00:21:09;101053.47;;;31.38;32.60
64516;BME280;50891;37.380;-122.076;2022-08-02T00:23:35;101057.84;;;31.44;32.34
64516;BME280;50891;37.380;-122.076;2022-08-02T00:26:01;101053.53;;;31.48;32.22
64516;BME280;50891;37.380;-122.076;2022-08-02T00:28:28;101047.28;;;31.48;32.15
64516;BME280;50891;37.380;-122.076;2022-08-02T00:30:57;101049.19;;;31.47;32.22
64516;BME280;50891;37.380;-122.076;2022-08-02T00:33:24;101048.06;;;31.43;32.15
64516;BME280;50891;37.380;-122.076;2022-08-02T00:35:51;101047.53;;;31.46;32.39
64516;BME280;50891;37.380;-122.076;2022-08-02T00:38:17;101051.63;;;31.49;32.08
64516;BME280;50891;37.380;-122.076;2022-08-02T00:40:48;101054.09;;;31.50;32.36
64516;BME280;50891;37.380;-122.076;2022-08-02T00:43:14;101061.13;;;31.46;31.97
64516;BME280;50891;37.380;-122.076;2022-08-02T00:45:42;101057.91;;;31.49;32.33
64516;BME280;50891;37.380;-122.076;2022-08-02T00:48:10;101052.19;;;31.51;31.89
64516;BME280;50891;37.380;-122.076;2022-08-02T00:50:37;101048.63;;;31.50;31.91
64516;BME280;50891;37.380;-122.076;2022-08-02T00:53:04;101045.38;;;31.48;32.26
64516;BME280;50891;37.380;-122.076;2022-08-02T00:55:31;101039.94;;;31.48;32.03
64516;BME280;50891;37.380;-122.076;2022-08-02T00:57:57;101046.47;;;31.47;32.38
64516;BME280;50891;37.380;-122.076;2022-08-02T01:00:23;101056.25;;;31.48;32.27
64516;BME280;50891;37.380;-122.076;2022-08-02T01:02:51;101053.28;;;31.55;32.43
64516;BME280;50891;37.380;-122.076;2022-08-02T01:05:17;101058.47;;;31.57;32.28
64516;BME280;50891;37.380;-122.076;2022-08-02T01:07:44;101051.38;;;31.56;32.17
64516;BME280;50891;37.380;-122.076;2022-08-02T01:10:10;101047.28;;;31.53;32.01
64516;BME280;50891;37.380;-122.076;2022-08-02T01:12:36;101056.25;;;31.54;32.18
64516;BME280;50891;37.380;-122.076;2022-08-02T01:15:06;101048.63;;;31.50;32.01
64516;BME280;50891;37.380;-122.076;2022-08-02T01:18:00;101046.25;;;31.59;31.92
64516;BME280;50891;37.380;-122.076;2022-08-02T01:36:25;101055.47;;;31.58;31.83
64516;BME280;50891;37.380;-122.076;2022-08-02T01:38:56;101060.09;;;31.63;31.68
64516;BME280;50891;37.380;-122.076;2022-08-02T01:41:25;101053.31;;;31.65;31.69
64516;BME280;50891;37.380;-122.076;2022-08-02T01:43:57;101034.28;;;31.65;31.46
64516;BME280;50891;37.380;-122.076;2022-08-02T01:46:26;101036.19;;;31.65;31.26
64516;BME280;50891;37.380;-122.076;2022-08-02T01:48:55;101042.66;;;31.54;31.33
64516;BME280;50891;37.380;-122.076;2022-08-02T01:51:24;101039.38;;;31.52;31.41
64516;BME280;50891;37.380;-122.076;2022-08-02T01:54:13;101044.59;;;31.58;31.37
64516;BME280;50891;37.380;-122.076;2022-08-02T01:56:41;101045.44;;;31.59;31.27
64516;BME280;50891;37.380;-122.076;2022-08-02T01:59:13;101042.66;;;31.54;31.20
64516;BME280;50891;37.380;-122.076;2022-08-02T02:01:42;101032.09;;;31.57;31.09
64516;BME280;50891;37.380;-122.076;2022-08-02T02:04:09;101036.72;;;31.57;30.63
64516;BME280;50891;37.380;-122.076;2022-08-02T02:06:37;101033.47;;;31.60;30.90
64516;BME280;50891;37.380;-122.076;2022-08-02T02:09:04;101028.00;;;31.60;30.89
64516;BME280;50891;37.380;-122.076;2022-08-02T02:11:31;101034.03;;;31.67;30.63
64516;BME280;50891;37.380;-122.076;2022-08-02T02:14:01;101030.75;;;31.60;30.49
64516;BME280;50891;37.380;-122.076;2022-08-02T02:16:28;101028.03;;;31.65;30.23
64516;BME280;50891;37.380;-122.076;2022-08-02T02:18:56;101033.47;;;31.70;29.96
64516;BME280;50891;37.380;-122.076;2022-08-02T02:21:25;101033.53;;;31.75;29.91
64516;BME280;50891;37.380;-122.076;2022-08-02T02:23:51;101034.59;;;31.74;30.06
64516;BME280;50891;37.380;-122.076;2022-08-02T02:26:18;101033.78;;;31.79;30.14
64516;BME280;50891;37.380;-122.076;2022-08-02T02:28:46;101030.28;;;31.83;29.91
64516;BME280;50891;37.380;-122.076;2022-08-02T02:31:15;101021.28;;;31.83;29.79
64516;BME280;50891;37.380;-122.076;2022-08-02T02:33:50;101018.84;;;31.81;29.64
64516;BME280;50891;37.380;-122.076;2022-08-02T02:36:18;101025.63;;;31.84;29.79
64516;BME280;50891;37.380;-122.076;2022-08-02T02:38:47;101027.00;;;31.86;29.72
64516;BME280;50891;37.380;-122.076;2022-08-02T02:41:16;101023.78;;;31.89;29.56
64516;BME280;50891;37.380;-122.076;2022-08-02T02:43:44;101028.91;;;31.91;29.54
64516;BME280;50891;37.380;-122.076;2022-08-02T02:46:12;101024.84;;;31.88;29.74
64516;BME280;50891;37.380;-122.076;2022-08-02T02:48:40;101016.41;;;31.95;29.30
64516;BME280;50891;37.380;-122.076;2022-08-02T02:51:07;101017.53;;;31.94;29.19
64516;BME280;50891;37.380;-122.076;2022-08-02T02:53:36;101026.50;;;31.95;29.29
64516;BME280;50891;37.380;-122.076;2022-08-02T02:56:02;101026.78;;;31.98;29.40
64516;BME280;50891;37.380;-122.076;2022-08-02T02:58:30;101025.69;;;31.94;29.82
64516;BME280;50891;37.380;-122.076;2022-08-02T03:00:57;101020.25;;;31.94;29.89
64516;BME280;50891;37.380;-122.076;2022-08-02T03:03:43;101024.84;;;31.93;30.01
64516;BME280;50891;37.380;-122.076;2022-08-02T03:06:10;101025.94;;;31.92;30.50
64516;BME280;50891;37.380;-122.076;2022-08-02T03:08:37;101034.13;;;31.98;30.23
64516;BME280;50891;37.380;-122.076;2022-08-02T03:11:03;101037.97;;;31.97;30.31
64516;BME280;50891;37.380;-122.076;2022-08-02T03:13:30;101044.22;;;32.02;30.21
64516;BME280;50891;37.380;-122.076;2022-08-02T03:15:59;101044.78;;;32.04;30.32
64516;BME280;50891;37.380;-122.076;2022-08-02T03:18:39;101047.78;;;32.08;30.13
64516;BME280;50891;37.380;-122.076;2022-08-02T03:21:08;101039.63;;;32.13;30.08
64516;BME280;50891;37.380;-122.076;2022-08-02T03:23:37;101045.63;;;32.15;30.12
64516;BME280;50891;37.380;-122.076;2022-08-02T03:26:03;101039.38;;;32.20;30.03
64516;BME280;50891;37.380;-122.076;2022-08-02T03:28:30;101040.19;;;32.20;29.86
64516;BME280;50891;37.380;-122.076;2022-08-02T03:30:56;101037.19;;;32.22;29.88
64516;BME280;50891;37.380;-122.076;2022-08-02T03:33:23;101038.56;;;32.24;29.56
64516;BME280;50891;37.380;-122.076;2022-08-02T03:35:53;101041.84;;;32.26;29.47
64516;BME280;50891;37.380;-122.076;2022-08-02T03:38:22;101054.09;;;32.29;29.54
64516;BME280;50891;37.380;-122.076;2022-08-02T03:40:49;101044.00;;;32.29;29.83
64516;BME280;50891;37.380;-122.076;2022-08-02T03:43:16;101048.09;;;32.32;29.48
64516;BME280;50891;37.380;-122.076;2022-08-02T03:45:45;101046.72;;;32.34;29.40
64516;BME280;50891;37.380;-122.076;2022-08-02T03:48:16;101043.75;;;32.36;29.44
64516;BME280;50891;37.380;-122.076;2022-08-02T03:50:44;101035.28;;;32.38;29.40
64516;BME280;50891;37.380;-122.076;2022-08-02T03:53:12;101052.97;;;32.40;29.46
64516;BME280;50891;37.380;-122.076;2022-08-02T03:55:39;101059.25;;;32.41;29.52
64516;BME280;50891;37.380;-122.076;2022-08-02T03:58:05;101065.78;;;32.40;29.57
64516;BME280;50891;37.380;-122.076;2022-08-02T04:00:31;101050.25;;;32.40;29.37
64516;BME280;50891;37.380;-122.076;2022-08-02T04:02:58;101062.00;;;32.41;29.10
64516;BME280;50891;37.380;-122.076;2022-08-02T04:05:24;101056.53;;;32.41;29.10
64516;BME280;50891;37.380;-122.076;2022-08-02T04:07:50;101051.91;;;32.41;29.06
64516;BME280;50891;37.380;-122.076;2022-08-02T04:10:17;101047.28;;;32.42;29.01
64516;BME280;50891;37.380;-122.076;2022-08-02T04:12:43;101051.66;;;32.43;28.89
64516;BME280;50891;37.380;-122.076;2022-08-02T04:15:12;101053.25;;;32.44;28.94
64516;BME280;50891;37.380;-122.076;2022-08-02T04:17:42;101046.72;;;32.45;29.01
64516;BME280;50891;37.380;-122.076;2022-08-02T04:20:17;101042.94;;;32.46;29.08
64516;BME280;50891;37.380;-122.076;2022-08-02T04:23:04;101050.00;;;32.47;29.54
64516;BME280;50891;37.380;-122.076;2022-08-02T04:25:32;101053.25;;;32.49;29.29
64516;BME280;50891;37.380;-122.076;2022-08-02T04:27:59;101057.63;;;32.50;29.27
64516;BME280;50891;37.380;-122.076;2022-08-02T04:30:27;101063.94;;;32.50;29.34
64516;BME280;50891;37.380;-122.076;2022-08-02T04:32:54;101062.00;;;32.51;28.82
64516;BME280;50891;37.380;-122.076;2022-08-02T04:35:21;101062.81;;;32.51;28.89
64516;BME280;50891;37.380;-122.076;2022-08-02T04:37:48;101055.75;;;32.50;29.03
64516;BME280;50891;37.380;-122.076;2022-08-02T04:40:14;101057.38;;;32.51;28.76
64516;BME280;50891;37.380;-122.076;2022-08-02T04:42:40;101050.53;;;32.49;28.92
64516;BME280;50891;37.380;-122.076;2022-08-02T04:45:07;101045.91;;;32.39;28.89
64516;BME280;50891;37.380;-122.076;2022-08-02T04:47:34;101047.28;;;32.31;28.42
64516;BME280;50891;37.380;-122.076;2022-08-02T04:50:00;101046.72;;;32.24;28.07
64516;BME280;50891;37.380;-122.076;2022-08-02T04:52:27;101045.06;;;32.18;28.03
64516;BME280;50891;37.380;-122.076;2022-08-02T04:54:53;101049.41;;;32.14;27.76
64516;BME280;50891;37.380;-122.076;2022-08-02T04:57:20;101046.13;;;32.07;28.07
64516;BME280;50891;37.380;-122.076;2022-08-02T05:00:05;101062.47;;;32.07;27.99
64516;BME280;50891;37.380;-122.076;2022-08-02T05:02:40;101062.75;;;32.05;27.87
64516;BME280;50891;37.380;-122.076;2022-08-02T05:05:06;101066.78;;;32.03;28.01
64516;BME280;50891;37.380;-122.076;2022-08-02T05:07:33;101061.66;;;32.01;27.88
64516;BME280;50891;37.380;-122.076;2022-08-02T05:09:59;101067.34;;;32.00;28.07
64516;BME280;50891;37.380;-122.076;2022-08-02T05:12:25;101060.53;;;31.97;28.14
64516;BME280;50891;37.380;-122.076;2022-08-02T05:14:51;101054.84;;;31.99;28.20
64516;BME280;50891;37.380;-122.076;2022-08-02T05:17:17;101060.53;;;31.97;28.03
64516;BME280;50891;37.380;-122.076;2022-08-02T05:19:44;101065.66;;;31.93;27.85
64516;BME280;50891;37.380;-122.076;2022-08-02T05:22:10;101066.75;;;31.92;28.03
64516;BME280;50891;37.380;-122.076;2022-08-02T05:24:36;101056.97;;;31.91;27.97
64516;BME280;50891;37.380;-122.076;2022-08-02T05:27:02;101059.94;;;31.90;28.15
64516;BME280;50891;37.380;-122.076;2022-08-02T05:29:28;101055.59;;;31.89;28.16
64516;BME280;50891;37.380;-122.076;2022-08-02T05:31:54;101062.13;;;31.88;27.89
64516;BME280;50891;37.380;-122.076;2022-08-02T05:34:21;101068.09;;;31.85;28.22
64516;BME280;50891;37.380;-122.076;2022-08-02T05:36:47;101052.03;;;31.83;28.24
64516;BME280;50891;37.380;-122.076;2022-08-02T05:39:13;101055.84;;;31.82;27.99
64516;BME280;50891;37.380;-122.076;2022-08-02T05:41:39;101061.28;;;31.82;28.26
64516;BME280;50891;37.380;-122.076;2022-08-02T05:44:05;101058.00;;;31.80;28.42
64516;BME280;50891;37.380;-122.076;2022-08-02T05:46:32;101049.31;;;31.78;28.09
64516;BME280;50891;37.380;-122.076;2022-08-02T05:48:58;101059.38;;;31.78;28.40
64516;BME280;50891;37.380;-122.076;2022-08-02T05:51:42;101054.72;;;31.73;28.18
64516;BME280;50891;37.380;-122.076;2022-08-02T05:54:23;101053.06;;;31.72;28.27
64516;BME280;50891;37.380;-122.076;2022-08-02T05:57:05;101062.59;;;31.69;28.67
64516;BME280;50891;37.380;-122.076;2022-08-02T05:59:46;101056.59;;;31.67;28.58
64516;BME280;50891;37.380;-122.076;2022-08-02T06:02:34;101057.94;;;31.65;28.42
64516;BME280;50891;37.380;-122.076;2022-08-02T06:05:12;101060.66;;;31.65;28.88
64516;BME280;50891;37.380;-122.076;2022-08-02T06:07:44;101063.13;;;31.61;28.80
64516;BME280;50891;37.380;-122.076;2022-08-02T06:10:12;101057.63;;;31.56;28.85
64516;BME280;50891;37.380;-122.076;2022-08-02T06:12:47;101062.78;;;31.53;29.24
64516;BME280;50891;37.380;-122.076;2022-08-02T06:15:17;101063.34;;;31.49;29.60
64516;BME280;50891;37.380;-122.076;2022-08-02T06:17:44;101068.78;;;31.49;29.68
64516;BME280;50891;37.380;-122.076;2022-08-02T06:20:11;101068.19;;;31.42;29.83
64516;BME280;50891;37.380;-122.076;2022-08-02T06:22:42;101061.59;;;31.38;30.08
64516;BME280;50891;37.380;-122.076;2022-08-02T06:25:12;101077.91;;;31.33;30.46
64516;BME280;50891;37.380;-122.076;2022-08-02T06:27:40;101071.34;;;31.29;30.47
64516;BME280;50891;37.380;-122.076;2022-08-02T06:30:09;101072.69;;;31.26;30.84
64516;BME280;50891;37.380;-122.076;2022-08-02T06:32:36;101080.28;;;31.24;31.03
64516;BME280;50891;37.380;-122.076;2022-08-02T06:35:03;101074.31;;;31.27;31.14
64516;BME280;50891;37.380;-122.076;2022-08-02T06:37:43;101068.06;;;31.27;31.18
64516;BME280;50891;37.380;-122.076;2022-08-02T06:40:40;101077.28;;;31.26;31.45
64516;BME280;50891;37.380;-122.076;2022-08-02T06:43:17;101077.28;;;31.26;31.92
64516;BME280;50891;37.380;-122.076;2022-08-02T06:45:46;101078.94;;;31.27;32.05
64516;BME280;50891;37.380;-122.076;2022-08-02T06:48:13;101085.44;;;31.26;31.92
64516;BME280;50891;37.380;-122.076;2022-08-02T06:50:40;101081.88;;;31.20;32.27
64516;BME280;50891;37.380;-122.076;2022-08-02T06:53:10;101084.03;;;31.18;32.61
64516;BME280;50891;37.380;-122.076;2022-08-02T06:55:36;101084.31;;;31.17;32.95
64516;BME280;50891;37.380;-122.076;2022-08-02T06:58:02;101086.47;;;31.15;32.79
64516;BME280;50891;37.380;-122.076;2022-08-02T07:00:29;101094.88;;;31.13;32.95
64516;BME280;50891;37.380;-122.076;2022-08-02T07:02:55;101088.06;;;31.11;33.13
64516;BME280;50891;37.380;-122.076;2022-08-02T07:05:22;101092.13;;;31.08;33.33
64516;BME280;50891;37.380;-122.076;2022-08-02T07:07:48;101107.06;;;31.05;33.65
64516;BME280;50891;37.380;-122.076;2022-08-02T07:10:15;101098.91;;;31.05;33.82
64516;BME280;50891;37.380;-122.076;2022-08-02T07:12:41;101091.81;;;31.04;33.81
64516;BME280;50891;37.380;-122.076;2022-08-02T07:15:08;101096.69;;;31.02;33.48
64516;BME280;50891;37.380;-122.076;2022-08-02T07:17:38;101098.88;;;31.00;33.67
64516;BME280;50891;37.380;-122.076;2022-08-02T07:20:05;101093.44;;;31.00;33.70
64516;BME280;50891;37.380;-122.076;2022-08-02T07:22:31;101093.44;;;31.00;33.75
64516;BME280;50891;37.380;-122.076;2022-08-02T07:24:58;101095.59;;;30.98;34.07
64516;BME280;50891;37.380;-122.076;2022-08-02T07:27:25;101092.81;;;30.93;34.42
64516;BME280;50891;37.380;-122.076;2022-08-02T07:29:53;101099.91;;;30.94;34.40
64516;BME280;50891;37.380;-122.076;2022-08-02T07:32:22;101091.19;;;30.92;35.35
64516;BME280;50891;37.380;-122.076;2022-08-02T07:34:49;101093.66;;;30.94;35.56
64516;BME280;50891;37.380;-122.076;2022-08-02T07:37:15;101090.38;;;30.92;36.42
64516;BME280;50891;37.380;-122.076;2022-08-02T07:39:41;101091.19;;;30.92;36.57
64516;BME280;50891;37.380;-122.076;2022-08-02T07:42:07;101084.66;;;30.93;36.87
64516;BME280;50891;37.380;-122.076;2022-08-02T07:44:34;101084.13;;;30.91;37.30
64516;BME280;50891;37.380;-122.076;2022-08-02T07:47:01;101082.47;;;30.90;37.50
64516;BME280;50891;37.380;-122.076;2022-08-02T07:49:28;101086.28;;;30.89;37.53
64516;BME280;50891;37.380;-122.076;2022-08-02T07:51:55;101082.72;;;30.88;37.75
64516;BME280;50891;37.380;-122.076;2022-08-02T07:54:22;101089.50;;;30.86;37.93
64516;BME280;50891;37.380;-122.076;2022-08-02T07:56:49;101098.75;;;30.85;37.61
64516;BME280;50891;37.380;-122.076;2022-08-02T07:59:18;101095.44;;;30.83;37.63
64516;BME280;50891;37.380;-122.076;2022-08-02T08:01:44;101102.78;;;30.82;37.80
64516;BME280;50891;37.380;-122.076;2022-08-02T08:04:10;101095.41;;;30.78;38.00
64516;BME280;50891;37.380;-122.076;2022-08-02T08:06:36;101108.09;;;30.72;37.91
64516;BME280;50891;37.380;-122.076;2022-08-02T08:09:03;101106.16;;;30.67;38.04
64516;BME280;50891;37.380;-122.076;2022-08-02T08:11:29;101107.78;;;30.63;37.78
64516;BME280;50891;37.380;-122.076;2022-08-02T08:13:55;101106.41;;;30.61;37.95
64516;BME280;50891;37.380;-122.076;2022-08-02T08:16:21;101116.13;;;30.57;37.81
64516;BME280;50891;37.380;-122.076;2022-08-02T08:18:48;101114.75;;;30.54;37.77
64516;BME280;50891;37.380;-122.076;2022-08-02T08:21:14;101109.81;;;30.51;37.65
64516;BME280;50891;37.380;-122.076;2022-08-02T08:23:40;101109.28;;;30.49;37.91
64516;BME280;50891;37.380;-122.076;2022-08-02T08:26:06;101106.00;;;30.47;37.89
64516;BME280;50891;37.380;-122.076;2022-08-02T08:28:33;101109.19;;;30.44;37.85
64516;BME280;50891;37.380;-122.076;2022-08-02T08:31:00;101103.19;;;30.42;37.80
64516;BME280;50891;37.380;-122.076;2022-08-02T08:33:27;101100.19;;;30.38;37.66
64516;BME280;50891;37.380;-122.076;2022-08-02T08:35:53;101098.81;;;30.36;37.67
64516;BME280;50891;37.380;-122.076;2022-08-02T08:38:20;101094.97;;;30.32;37.96
64516;BME280;50891;37.380;-122.076;2022-08-02T08:40:48;101091.97;;;30.28;37.85
64516;BME280;50891;37.380;-122.076;2022-08-02T08:43:15;101092.69;;;30.23;37.59
64516;BME280;50891;37.380;-122.076;2022-08-02T08:45:45;101095.09;;;30.20;37.50
64516;BME280;50891;37.380;-122.076;2022-08-02T08:48:14;101097.47;;;30.16;37.31
64516;BME280;50891;37.380;-122.076;2022-08-02T08:50:52;101104.00;;;30.15;37.44
64516;BME280;50891;37.380;-122.076;2022-08-02T08:53:19;101103.41;;;30.13;37.21
64516;BME280;50891;37.380;-122.076;2022-08-02T08:55:47;101102.84;;;30.11;37.12
64516;BME280;50891;37.380;-122.076;2022-08-02T08:58:13;101105.00;;;30.09;37.10
64516;BME280;50891;37.380;-122.076;2022-08-02T09:00:40;101106.66;;;30.10;36.92
64516;BME280;50891;37.380;-122.076;2022-08-02T09:03:07;101106.06;;;30.08;37.26
64516;BME280;50891;37.380;-122.076;2022-08-02T09:05:35;101097.63;;;30.04;36.82
64516;BME280;50891;37.380;-122.076;2022-08-02T09:08:02;101103.88;;;30.05;36.97
64516;BME280;50891;37.380;-122.076;2022-08-02T09:10:43;101097.31;;;30.01;36.88
64516;BME280;50891;37.380;-122.076;2022-08-02T09:13:10;101096.19;;;29.97;36.78
64516;BME280;50891;37.380;-122.076;2022-08-02T09:15:38;101085.84;;;29.94;36.82
64516;BME280;50891;37.380;-122.076;2022-08-02T09:18:05;101091.75;;;29.91;36.88
64516;BME280;50891;37.380;-122.076;2022-08-02T09:20:33;101086.84;;;29.88;36.87
64516;BME280;50891;37.380;-122.076;2022-08-02T09:23:07;101087.38;;;29.85;36.57
64516;BME280;50891;37.380;-122.076;2022-08-02T09:25:34;101091.66;;;29.80;36.52
64516;BME280;50891;37.380;-122.076;2022-08-02T09:28:03;101107.63;;;29.77;36.48
64516;BME280;50891;37.380;-122.076;2022-08-02T09:30:30;101097.75;;;29.71;36.24
64516;BME280;50891;37.380;-122.076;2022-08-02T09:32:56;101101.53;;;29.70;36.33
64516;BME280;50891;37.380;-122.076;2022-08-02T09:35:34;101093.88;;;29.67;36.29
64516;BME280;50891;37.380;-122.076;2022-08-02T09:38:11;101100.03;;;29.62;36.35
64516;BME280;50891;37.380;-122.076;2022-08-02T09:40:39;101102.47;;;29.58;36.20
64516;BME280;50891;37.380;-122.076;2022-08-02T09:43:07;101104.84;;;29.55;36.20
64516;BME280;50891;37.380;-122.076;2022-08-02T09:45:34;101098.84;;;29.53;36.46
64516;BME280;50891;37.380;-122.076;2022-08-02T09:48:08;101099.91;;;29.52;36.25
64516;BME280;50891;37.380;-122.076;2022-08-02T09:50:39;101103.69;;;29.51;36.44
64516;BME280;50891;37.380;-122.076;2022-08-02T09:53:11;101106.41;;;29.51;36.41
64516;BME280;50891;37.380;-122.076;2022-08-02T09:55:39;101098.53;;;29.49;36.31
64516;BME280;50891;37.380;-122.076;2022-08-02T09:58:17;101103.38;;;29.47;36.49
64516;BME280;50891;37.380;-122.076;2022-08-02T10:00:54;101096.25;;;29.41;36.18
64516;BME280;50891;37.380;-122.076;2022-08-02T10:03:21;101098.72;;;29.42;36.42
64516;BME280;50891;37.380;-122.076;2022-08-02T10:05:52;101090.00;;;29.40;36.27
64516;BME280;50891;37.380;-122.076;2022-08-02T10:08:20;101094.84;;;29.38;36.31
64516;BME280;50891;37.380;-122.076;2022-08-02T10:10:47;101103.22;;;29.37;36.35
64516;BME280;50891;37.380;-122.076;2022-08-02T10:13:14;101113.75;;;29.33;36.28
64516;BME280;50891;37.380;-122.076;2022-08-02T10:15:40;101113.75;;;29.33;36.41
64516;BME280;50891;37.380;-122.076;2022-08-02T10:18:07;101108.34;;;29.33;36.42
64516;BME280;50891;37.380;-122.076;2022-08-02T10:20:42;101099.63;;;29.31;36.37
64516;BME280;50891;37.380;-122.076;2022-08-02T10:23:12;101103.16;;;29.32;36.34
64516;BME280;50891;37.380;-122.076;2022-08-02T10:25:39;101108.84;;;29.30;36.16
64516;BME280;50891;37.380;-122.076;2022-08-02T10:28:05;101103.91;;;29.27;36.35
64516;BME280;50891;37.380;-122.076;2022-08-02T10:30:35;101105.22;;;29.25;36.25
64516;BME280;50891;37.380;-122.076;2022-08-02T10:33:03;101107.13;;;29.24;36.15
64516;BME280;50891;37.380;-122.076;2022-08-02T10:35:36;101098.41;;;29.22;36.25
64516;BME280;50891;37.380;-122.076;2022-08-02T10:38:08;101102.19;;;29.21;36.14
64516;BME280;50891;37.380;-122.076;2022-08-02T10:41:01;101103.25;;;29.20;36.10
64516;BME280;50891;37.380;-122.076;2022-08-02T10:49:16;101106.88;;;29.09;36.31
64516;BME280;50891;37.380;-122.076;2022-08-02T10:54:24;101103.25;;;29.03;36.46
64516;BME280;50891;37.380;-122.076;2022-08-02T10:56:54;101111.03;;;28.99;36.41
64516;BME280;50891;37.380;-122.076;2022-08-02T10:59:31;101101.78;;;28.95;36.33
64516;BME280;50891;37.380;-122.076;2022-08-02T11:02:00;101113.06;;;28.92;36.46
64516;BME280;50891;37.380;-122.076;2022-08-02T11:04:32;101119.56;;;28.91;36.54
64516;BME280;50891;37.380;-122.076;2022-08-02T11:07:18;101119.81;;;28.90;36.43
64516;BME280;50891;37.380;-122.076;2022-08-02T11:09:47;101120.31;;;28.87;36.21
64516;BME280;50891;37.380;-122.076;2022-08-02T11:12:18;101116.50;;;28.88;36.54
64516;BME280;50891;37.380;-122.076;2022-08-02T11:14:58;101115.69;;;28.87;36.47
64516;BME280;50891;37.380;-122.076;2022-08-02T11:17:25;101120.31;;;28.87;36.22
64516;BME280;50891;37.380;-122.076;2022-08-02T11:22:38;101134.56;;;28.82;36.24
64516;BME280;50891;37.380;-122.076;2022-08-02T11:27:54;101129.31;;;28.75;36.16
64516;BME280;50891;37.380;-122.076;2022-08-02T11:30:21;101116.28;;;28.72;36.25
64516;BME280;50891;37.380;-122.076;2022-08-02T11:32:47;101116.50;;;28.71;36.25
64516;BME280;50891;37.380;-122.076;2022-08-02T11:35:14;101116.50;;;28.71;36.18
64516;BME280;50891;37.380;-122.076;2022-08-02T11:37:42;101131.13;;;28.70;36.01
64516;BME280;50891;37.380;-122.076;2022-08-02T11:40:12;101131.59;;;28.67;36.11
64516;BME280;50891;37.380;-122.076;2022-08-02T11:42:42;101137.50;;;28.64;36.28
64516;BME280;50891;37.380;-122.076;2022-08-02T11:45:14;101127.97;;;28.61;36.02
64516;BME280;50891;37.380;-122.076;2022-08-02T11:47:51;101130.91;;;28.60;36.14
64516;BME280;50891;37.380;-122.076;2022-08-02T11:50:20;101126.00;;;28.56;36.04
64516;BME280;50891;37.380;-122.076;2022-08-02T11:52:50;101121.91;;;28.54;36.36
64516;BME280;50891;37.380;-122.076;2022-08-02T11:55:29;101125.91;;;28.51;36.50
64516;BME280;50891;37.380;-122.076;2022-08-02T11:58:00;101127.44;;;28.47;36.61
64516;BME280;50891;37.380;-122.076;2022-08-02T12:00:27;101122.50;;;28.44;36.34
64516;BME280;50891;37.380;-122.076;2022-08-02T12:02:53;101128.38;;;28.41;36.49
64516;BME280;50891;37.380;-122.076;2022-08-02T12:05:21;101138.63;;;28.39;36.45
64516;BME280;50891;37.380;-122.076;2022-08-02T12:07:51;101139.69;;;28.38;36.62
64516;BME280;50891;37.380;-122.076;2022-08-02T12:10:21;101140.19;;;28.35;36.52
64516;BME280;50891;37.380;-122.076;2022-08-02T12:12:58;101142.91;;;28.35;36.58
64516;BME280;50891;37.380;-122.076;2022-08-02T12:15:44;101142.31;;;28.33;36.50
64516;BME280;50891;37.380;-122.076;2022-08-02T12:18:21;101140.06;;;28.30;36.47
64516;BME280;50891;37.380;-122.076;2022-08-02T12:21:21;101148.66;;;28.27;36.44
64516;BME280;50891;37.380;-122.076;2022-08-02T12:23:48;101155.38;;;28.24;36.66
64516;BME280;50891;37.380;-122.076;2022-08-02T12:26:15;101146.47;;;28.24;36.61
64516;BME280;50891;37.380;-122.076;2022-08-02T12:28:41;101142.09;;;28.23;36.43
64516;BME280;50891;37.380;-122.076;2022-08-02T12:31:09;101156.69;;;28.22;36.45
64516;BME280;50891;37.380;-122.076;2022-08-02T12:33:53;101152.34;;;28.21;36.39
64516;BME280;50891;37.380;-122.076;2022-08-02T12:36:22;101149.66;;;28.21;36.44
64516;BME280;50891;37.380;-122.076;2022-08-02T12:38:56;101148.00;;;28.20;36.47
64516;BME280;50891;37.380;-122.076;2022-08-02T12:41:22;101146.38;;;28.19;36.53
64516;BME280;50891;37.380;-122.076;2022-08-02T12:43:50;101147.91;;;28.14;36.35
64516;BME280;50891;37.380;-122.076;2022-08-02T12:46:21;101147.31;;;28.12;36.40
64516;BME280;50891;37.380;-122.076;2022-08-02T12:48:48;101145.09;;;28.09;36.39
64516;BME280;50891;37.380;-122.076;2022-08-02T12:51:28;101139.59;;;28.04;36.56
64516;BME280;50891;37.380;-122.076;2022-08-02T12:54:14;101140.03;;;28.01;36.58
64516;BME280;50891;37.380;-122.076;2022-08-02T12:56:41;101158.63;;;27.98;36.63
64516;BME280;50891;37.380;-122.076;2022-08-02T12:59:07;101153.94;;;27.93;36.59
64516;BME280;50891;37.380;-122.076;2022-08-02T13:01:34;101159.81;;;27.90;36.76